createdAt,value
2022-11-21T00:03:24.578Z,99258.47
2022-11-21T00:08:26.180Z,99259.31
2022-11-21T00:13:27.947Z,99256.03
2022-11-21T00:18:29.529Z,99246.72
2022-11-21T00:23:31.152Z,99242.38
2022-11-21T00:28:33.275Z,99240.56
2022-11-21T00:33:36.411Z,99237.06
2022-11-21T00:38:38.258Z,99231.88
2022-11-21T00:43:40.260Z,99219.16
2022-11-21T00:48:42.087Z,99218.75
2022-11-21T00:53:43.709Z,99209.47
2022-11-21T00:58:45.309Z,99197.31
2022-11-21T01:03:46.981Z,99195.38
2022-11-21T01:08:48.762Z,99206.91
2022-11-21T01:13:52.899Z,99195.84
2022-11-21T01:18:54.586Z,99188.88
2022-11-21T01:23:58.468Z,99185.75
2022-11-21T01:29:00.771Z,99184.22
2022-11-21T01:34:02.415Z,99174.28
2022-11-21T01:39:06.046Z,99157.19
2022-11-21T01:44:14.961Z,99147.97
2022-11-21T01:49:30.664Z,99162.22
2022-11-21T01:54:53.700Z,99153.34
2022-11-21T02:00:02.815Z,99148.13
2022-11-21T02:05:11.525Z,99131.72
2022-11-21T02:10:15.512Z,99129.16
2022-11-21T02:15:23.255Z,99114.19
2022-11-21T02:20:27.425Z,99115.09
2022-11-21T02:25:31.465Z,99110.91
2022-11-21T02:30:36.224Z,99099.31
2022-11-21T02:35:38.088Z,99096.22
2022-11-21T02:40:44.148Z,99080.53
2022-11-21T02:45:46.804Z,99084.13
2022-11-21T02:50:48.375Z,99087.19
2022-11-21T02:55:50.171Z,99078.78
2022-11-21T03:00:51.814Z,99075.91
2022-11-21T03:05:54.389Z,99087.75
2022-11-21T03:10:55.985Z,99087.75
2022-11-21T03:15:59.573Z,99088.00
2022-11-21T03:21:01.208Z,99083.84
2022-11-21T03:26:02.811Z,99089.00
2022-11-21T03:31:04.377Z,99104.16
2022-11-21T03:36:06.051Z,99101.84
2022-11-21T03:41:27.843Z,99106.25
2022-11-21T03:46:32.238Z,99107.91
2022-11-21T03:51:34.521Z,99099.88
2022-11-21T03:56:36.286Z,99078.63
2022-11-21T04:01:37.982Z,99071.09
2022-11-21T04:06:39.580Z,99094.13
2022-11-21T04:11:41.377Z,99086.56
2022-11-21T04:16:42.961Z,99101.66
2022-11-21T04:21:44.553Z,99111.69
2022-11-21T04:26:46.151Z,99105.03
2022-11-21T04:31:47.700Z,99113.47
2022-11-21T04:36:49.328Z,99107.75
2022-11-21T04:41:51.195Z,99126.91
2022-11-21T04:46:53.214Z,99133.78
2022-11-21T04:51:54.787Z,99131.34
2022-11-21T04:56:56.605Z,99136.56
2022-11-21T05:01:58.182Z,99144.97
2022-11-21T05:06:59.816Z,99141.78
2022-11-21T05:12:21.630Z,99141.91
2022-11-21T05:17:23.497Z,99132.00
2022-11-21T05:22:25.279Z,99122.09
2022-11-21T05:27:27.106Z,99121.13
2022-11-21T05:32:28.703Z,99113.53
2022-11-21T05:37:30.260Z,99111.91
2022-11-21T05:42:50.172Z,99103.03
2022-11-21T05:47:52.001Z,99088.19
2022-11-21T05:52:53.612Z,99100.72
2022-11-21T05:57:58.356Z,99080.84
2022-11-21T06:03:18.296Z,99081.84
2022-11-21T06:08:19.962Z,99072.81
2022-11-21T06:13:22.179Z,99074.63
2022-11-21T06:18:24.117Z,99069.84
2022-11-21T06:23:25.777Z,99062.41
2022-11-21T06:28:31.287Z,99061.25
2022-11-21T06:33:33.750Z,99069.84
2022-11-21T06:38:36.104Z,99059.19
2022-11-21T06:43:37.726Z,99068.47
2022-11-21T06:48:39.971Z,99070.22
2022-11-21T06:53:41.776Z,99064.47
2022-11-21T06:58:43.365Z,99078.69
2022-11-21T07:03:45.003Z,99071.47
2022-11-21T07:08:52.471Z,99071.59
2022-11-21T07:14:07.725Z,99070.03
2022-11-21T07:19:10.761Z,99071.03
2022-11-21T07:24:12.554Z,99070.31
2022-11-21T07:29:14.131Z,99074.47
2022-11-21T07:34:15.697Z,99065.69
2022-11-21T07:39:17.274Z,99061.84
2022-11-21T07:44:18.823Z,99052.19
2022-11-21T07:49:20.401Z,99048.47
2022-11-21T07:54:22.198Z,99057.41
2022-11-21T07:59:23.903Z,99066.81
2022-11-21T08:04:25.841Z,99063.81
2022-11-21T08:09:29.353Z,99071.69
2022-11-21T08:14:31.325Z,99070.28
2022-11-21T08:19:33.052Z,99070.63
2022-11-21T08:24:34.631Z,99072.59
2022-11-21T08:29:36.261Z,99066.25
2022-11-21T08:34:38.210Z,99063.97
2022-11-21T08:39:39.794Z,99052.53
2022-11-21T08:44:41.363Z,99066.97
2022-11-21T08:49:42.936Z,99071.31
2022-11-21T08:54:45.514Z,99067.19
2022-11-21T08:59:47.091Z,99076.34
2022-11-21T09:04:48.665Z,99062.34
2022-11-21T09:09:50.310Z,99060.81
2022-11-21T09:15:10.398Z,99052.63
2022-11-21T09:20:12.112Z,99047.00
2022-11-21T09:25:13.756Z,99038.81
2022-11-21T09:30:16.090Z,99035.72
2022-11-21T09:35:17.661Z,99041.72
2022-11-21T09:40:19.794Z,99036.84
2022-11-21T09:45:35.111Z,99026.13
2022-11-21T09:50:41.512Z,99035.50
2022-11-21T09:55:59.399Z,99018.09
2022-11-21T10:01:01.477Z,99015.75
2022-11-21T10:06:17.812Z,99015.84
2022-11-21T10:12:14.774Z,99011.03
2022-11-21T10:17:26.700Z,99001.28
2022-11-21T10:22:40.936Z,98988.13
2022-11-21T10:28:21.913Z,98992.41
2022-11-21T10:33:31.689Z,98968.22
2022-11-21T10:38:43.303Z,98964.97
2022-11-21T10:44:15.285Z,98965.81
2022-11-21T10:49:17.099Z,98971.72
2022-11-21T10:54:33.927Z,98961.69
2022-11-21T10:59:35.600Z,98958.34
2022-11-21T11:04:45.791Z,98956.66
2022-11-21T11:09:53.442Z,98951.66
2022-11-21T11:14:56.583Z,98949.13
2022-11-21T11:20:33.048Z,98950.00
2022-11-21T11:25:37.020Z,98951.66
2022-11-21T11:30:38.707Z,98949.97
2022-11-21T11:35:40.808Z,98955.00
2022-11-21T11:40:44.743Z,98947.47
2022-11-21T11:46:27.233Z,98949.16
2022-11-21T11:51:37.186Z,98958.34
2022-11-21T11:56:39.697Z,98962.56
2022-11-21T12:01:48.619Z,98957.53
2022-11-21T12:08:19.939Z,98955.00
2022-11-21T12:12:30.868Z,98954.16
2022-11-21T12:17:38.928Z,98934.91
2022-11-21T12:22:40.959Z,98945.75
2022-11-21T12:27:45.006Z,98946.59
2022-11-21T12:32:55.733Z,98933.22
2022-11-21T12:38:00.120Z,98945.75
2022-11-21T12:43:23.394Z,98944.91
2022-11-21T12:49:00.322Z,98948.22
2022-11-21T12:54:33.266Z,98956.59
2022-11-21T12:59:44.968Z,98959.91
2022-11-21T13:04:49.776Z,98960.75
2022-11-21T13:09:54.395Z,98972.44
2022-11-21T13:15:18.214Z,98972.44
2022-11-21T13:20:25.952Z,98979.16
2022-11-21T13:25:30.259Z,98972.47
2022-11-21T13:30:32.057Z,98959.91
2022-11-21T13:35:51.876Z,98957.38
2022-11-21T13:41:12.354Z,98959.84
2022-11-21T13:46:52.460Z,98963.19
2022-11-21T13:51:54.543Z,98963.16
2022-11-21T13:57:03.482Z,98964.84
2022-11-21T14:02:25.011Z,98966.44
2022-11-21T14:07:32.980Z,98968.97
2022-11-21T14:12:44.138Z,98963.13
2022-11-21T14:17:50.043Z,98963.09
2022-11-21T14:23:03.267Z,98964.66
2022-11-21T14:28:09.737Z,98970.44
2022-11-21T14:33:35.480Z,98967.13
2022-11-21T14:39:07.670Z,98964.56
2022-11-21T14:44:10.695Z,98961.22
2022-11-21T14:49:20.517Z,98951.97
2022-11-21T14:54:40.018Z,98949.47
2022-11-21T14:59:44.030Z,98941.91
2022-11-21T15:04:48.162Z,98934.34
2022-11-21T15:10:27.320Z,98948.50
2022-11-21T15:15:23.482Z,98939.16
2022-11-21T15:20:26.505Z,98939.94
2022-11-21T15:25:30.503Z,98945.75
2022-11-21T15:30:33.977Z,98950.66
2022-11-21T15:35:35.649Z,98945.63
2022-11-21T15:40:37.272Z,98942.22
2022-11-21T15:45:38.933Z,98941.38
2022-11-21T15:50:40.685Z,98933.81
2022-11-21T15:55:42.291Z,98927.06
2022-11-21T16:00:43.931Z,98924.47
2022-11-21T16:05:45.567Z,98932.69
2022-11-21T16:10:47.265Z,98927.63
2022-11-21T16:15:48.917Z,98926.63
2022-11-21T16:20:50.835Z,98919.00
2022-11-21T16:25:54.217Z,98932.22
2022-11-21T16:30:58.310Z,98939.53
2022-11-21T16:36:00.427Z,98931.91
2022-11-21T16:41:05.283Z,98921.78
2022-11-21T16:46:09.383Z,98932.47
2022-11-21T16:51:20.992Z,98941.53
2022-11-21T16:56:22.625Z,98951.50
2022-11-21T17:01:26.251Z,98949.84
2022-11-21T17:06:30.380Z,98949.03
2022-11-21T17:11:32.197Z,98940.72
2022-11-21T17:16:34.853Z,98946.41
2022-11-21T17:21:36.769Z,98944.63
2022-11-21T17:26:38.491Z,98947.88
2022-11-21T17:31:41.921Z,98947.84
2022-11-21T17:36:43.686Z,98944.41
2022-11-21T17:41:45.339Z,98943.44
2022-11-21T17:46:47.058Z,98931.56
2022-11-21T17:51:52.459Z,98934.66
2022-11-21T17:56:57.311Z,98926.06
2022-11-21T18:01:59.128Z,98925.78
2022-11-21T18:07:00.924Z,98923.81
2022-11-21T18:12:02.579Z,98925.97
2022-11-21T18:17:04.215Z,98914.19
2022-11-21T18:22:05.896Z,98913.22
2022-11-21T18:27:09.350Z,98912.16
2022-11-21T18:32:10.942Z,98913.56
2022-11-21T18:37:12.741Z,98924.25
2022-11-21T18:42:14.296Z,98915.03
2022-11-21T18:47:20.793Z,98928.25
2022-11-21T18:52:22.726Z,98932.25
2022-11-21T18:57:24.533Z,98933.63
2022-11-21T19:02:26.575Z,98930.06
2022-11-21T19:07:28.324Z,98929.16
2022-11-21T19:12:33.811Z,98925.72
2022-11-21T19:17:37.919Z,98913.25
2022-11-21T19:22:39.496Z,98908.16
2022-11-21T19:27:41.063Z,98892.19
2022-11-21T19:32:42.696Z,98897.06
2022-11-21T19:37:44.854Z,98882.63
2022-11-21T19:42:46.461Z,98878.41
2022-11-21T19:47:49.011Z,98875.78
2022-11-21T19:52:50.645Z,98869.06
2022-11-21T19:57:52.225Z,98871.53
2022-11-21T20:02:54.036Z,98862.63
2022-11-21T20:08:01.666Z,98858.47
2022-11-21T20:13:05.438Z,98863.44
2022-11-21T20:18:08.324Z,98858.31
2022-11-21T20:23:10.110Z,98850.75
2022-11-21T20:28:11.985Z,98846.19
2022-11-21T20:33:13.604Z,98840.75
2022-11-21T20:38:17.903Z,98833.38
2022-11-21T20:43:23.158Z,98828.63
2022-11-21T20:48:24.952Z,98837.09
2022-11-21T20:53:51.592Z,98821.28
2022-11-21T20:58:52.383Z,98829.50
2022-11-21T21:03:54.529Z,98818.53
2022-11-21T21:08:56.108Z,98809.28
2022-11-21T21:13:57.885Z,98817.19
2022-11-21T21:18:59.980Z,98815.03
2022-11-21T21:24:08.285Z,98812.41
2022-11-21T21:29:12.246Z,98810.00
2022-11-21T21:34:14.278Z,98811.94
2022-11-21T21:39:15.990Z,98814.00
2022-11-21T21:44:17.560Z,98811.19
2022-11-21T21:49:19.284Z,98807.72
2022-11-21T21:54:22.307Z,98802.22
2022-11-21T21:59:23.972Z,98805.81
2022-11-21T22:04:25.925Z,98805.22
2022-11-21T22:09:27.716Z,98794.66
2022-11-21T22:14:29.849Z,98788.94
2022-11-21T22:19:31.757Z,98778.22
2022-11-21T22:24:33.452Z,98775.03
2022-11-21T22:29:35.023Z,98768.53
2022-11-21T22:34:36.766Z,98761.16
2022-11-21T22:39:38.601Z,98753.81
2022-11-21T22:44:40.201Z,98762.75
2022-11-21T22:49:41.841Z,98757.63
2022-11-21T22:54:43.661Z,98740.13
2022-11-21T22:59:45.240Z,98741.81
2022-11-21T23:04:46.830Z,98727.75
2022-11-21T23:09:48.421Z,98733.59
2022-11-21T23:14:50.145Z,98728.56
2022-11-21T23:19:51.905Z,98720.22
2022-11-21T23:24:53.504Z,98705.16
2022-11-21T23:29:55.249Z,98701.81
2022-11-21T23:34:56.865Z,98698.25
2022-11-21T23:39:58.429Z,98695.78
2022-11-21T23:45:00.229Z,98696.50
2022-11-21T23:50:01.834Z,98689.88
2022-11-21T23:55:03.669Z,98689.59
